sensor_id;sensor_type;location;lat;lon;timestamp;P1;durP1;ratioP1;P2;durP2;ratioP2
77362;SDS011;66428;47.322;9.432;2023-03-13T00:00:57;0.70;;;0.60;;
77362;SDS011;66428;47.322;9.432;2023-03-13T00:03:24;1.67;;;0.98;;
77362;SDS011;66428;47.322;9.432;2023-03-13T00:05:54;1.88;;;0.80;;
77362;SDS011;66428;47.322;9.432;2023-03-13T00:08:23;2.05;;;0.88;;
77362;SDS011;66428;47.322;9.432;2023-03-13T00:10:50;3.65;;;0.90;;
77362;SDS011;66428;47.322;9.432;2023-03-13T00:13:19;1.27;;;0.80;;
77362;SDS011;66428;47.322;9.432;2023-03-13T00:15:48;2.10;;;0.90;;
77362;SDS011;66428;47.322;9.432;2023-03-13T00:18:15;1.35;;;0.75;;
77362;SDS011;66428;47.322;9.432;2023-03-13T00:20:48;2.35;;;0.85;;
77362;SDS011;66428;47.322;9.432;2023-03-13T00:23:15;1.77;;;0.70;;
77362;SDS011;66428;47.322;9.432;2023-03-13T00:25:42;1.50;;;1.00;;
77362;SDS011;66428;47.322;9.432;2023-03-13T00:28:11;4.15;;;1.10;;
77362;SDS011;66428;47.322;9.432;2023-03-13T00:30:40;2.38;;;0.95;;
77362;SDS011;66428;47.322;9.432;2023-03-13T00:33:11;0.95;;;0.80;;
77362;SDS011;66428;47.322;9.432;2023-03-13T00:35:40;1.42;;;0.70;;
77362;SDS011;66428;47.322;9.432;2023-03-13T00:38:07;4.47;;;1.25;;
77362;SDS011;66428;47.322;9.432;2023-03-13T00:40:33;1.52;;;0.80;;
77362;SDS011;66428;47.322;9.432;2023-03-13T00:43:03;0.98;;;0.63;;
77362;SDS011;66428;47.322;9.432;2023-03-13T00:45:32;1.95;;;0.88;;
77362;SDS011;66428;47.322;9.432;2023-03-13T00:48:01;1.52;;;0.85;;
77362;SDS011;66428;47.322;9.432;2023-03-13T00:50:27;2.38;;;0.93;;
77362;SDS011;66428;47.322;9.432;2023-03-13T00:52:54;1.67;;;1.00;;
77362;SDS011;66428;47.322;9.432;2023-03-13T00:55:20;1.55;;;0.63;;
77362;SDS011;66428;47.322;9.432;2023-03-13T00:57:51;1.13;;;0.75;;
77362;SDS011;66428;47.322;9.432;2023-03-13T01:00:18;1.05;;;0.60;;
77362;SDS011;66428;47.322;9.432;2023-03-13T01:02:46;2.33;;;1.13;;
77362;SDS011;66428;47.322;9.432;2023-03-13T01:05:13;0.95;;;0.60;;
77362;SDS011;66428;47.322;9.432;2023-03-13T01:07:40;1.05;;;0.70;;
77362;SDS011;66428;47.322;9.432;2023-03-13T01:10:07;0.88;;;0.65;;
77362;SDS011;66428;47.322;9.432;2023-03-13T01:12:33;2.13;;;0.80;;
77362;SDS011;66428;47.322;9.432;2023-03-13T01:15:00;0.93;;;0.68;;
77362;SDS011;66428;47.322;9.432;2023-03-13T01:17:26;1.25;;;0.70;;
77362;SDS011;66428;47.322;9.432;2023-03-13T01:19:58;1.48;;;0.90;;
77362;SDS011;66428;47.322;9.432;2023-03-13T01:22:25;1.55;;;0.70;;
77362;SDS011;66428;47.322;9.432;2023-03-13T01:24:52;1.00;;;0.80;;
77362;SDS011;66428;47.322;9.432;2023-03-13T01:27:21;0.93;;;0.60;;
77362;SDS011;66428;47.322;9.432;2023-03-13T01:29:48;1.08;;;0.63;;
77362;SDS011;66428;47.322;9.432;2023-03-13T01:32:16;1.60;;;1.15;;
77362;SDS011;66428;47.322;9.432;2023-03-13T01:37:09;1.27;;;0.93;;
77362;SDS011;66428;47.322;9.432;2023-03-13T01:39:39;1.80;;;0.82;;
77362;SDS011;66428;47.322;9.432;2023-03-13T01:42:08;0.63;;;0.57;;
77362;SDS011;66428;47.322;9.432;2023-03-13T01:47:16;1.35;;;0.73;;
77362;SDS011;66428;47.322;9.432;2023-03-13T01:50:05;0.75;;;0.55;;
77362;SDS011;66428;47.322;9.432;2023-03-13T01:52:54;0.70;;;0.68;;
77362;SDS011;66428;47.322;9.432;2023-03-13T01:57:56;2.08;;;0.95;;
77362;SDS011;66428;47.322;9.432;2023-03-13T02:00:27;1.02;;;0.75;;
77362;SDS011;66428;47.322;9.432;2023-03-13T02:02:54;0.88;;;0.60;;
77362;SDS011;66428;47.322;9.432;2023-03-13T02:05:25;1.58;;;0.77;;
77362;SDS011;66428;47.322;9.432;2023-03-13T02:08:00;1.02;;;0.70;;
77362;SDS011;66428;47.322;9.432;2023-03-13T02:10:30;1.48;;;0.63;;
77362;SDS011;66428;47.322;9.432;2023-03-13T02:13:00;0.73;;;0.43;;
77362;SDS011;66428;47.322;9.432;2023-03-13T02:18:00;1.23;;;0.70;;
77362;SDS011;66428;47.322;9.432;2023-03-13T02:20:29;4.47;;;0.95;;
77362;SDS011;66428;47.322;9.432;2023-03-13T02:27:59;0.50;;;0.38;;
77362;SDS011;66428;47.322;9.432;2023-03-13T02:30:32;1.25;;;0.60;;
77362;SDS011;66428;47.322;9.432;2023-03-13T02:32:59;1.33;;;0.60;;
77362;SDS011;66428;47.322;9.432;2023-03-13T02:35:26;2.42;;;0.70;;
77362;SDS011;66428;47.322;9.432;2023-03-13T02:37:57;0.77;;;0.60;;
77362;SDS011;66428;47.322;9.432;2023-03-13T02:40:30;1.27;;;0.52;;
77362;SDS011;66428;47.322;9.432;2023-03-13T02:43:06;1.70;;;0.88;;
77362;SDS011;66428;47.322;9.432;2023-03-13T02:45:36;3.03;;;1.00;;
77362;SDS011;66428;47.322;9.432;2023-03-13T02:50:29;0.93;;;0.60;;
77362;SDS011;66428;47.322;9.432;2023-03-13T02:53:02;2.22;;;0.73;;
77362;SDS011;66428;47.322;9.432;2023-03-13T02:55:31;1.95;;;0.60;;
77362;SDS011;66428;47.322;9.432;2023-03-13T03:00:36;0.70;;;0.43;;
77362;SDS011;66428;47.322;9.432;2023-03-13T03:05:29;1.08;;;0.57;;
77362;SDS011;66428;47.322;9.432;2023-03-13T03:07:56;0.35;;;0.30;;
77362;SDS011;66428;47.322;9.432;2023-03-13T03:10:30;1.25;;;0.73;;
77362;SDS011;66428;47.322;9.432;2023-03-13T03:12:59;0.68;;;0.68;;
77362;SDS011;66428;47.322;9.432;2023-03-13T03:15:29;1.13;;;0.70;;
77362;SDS011;66428;47.322;9.432;2023-03-13T03:17:58;1.13;;;0.40;;
77362;SDS011;66428;47.322;9.432;2023-03-13T03:20:29;0.77;;;0.55;;
77362;SDS011;66428;47.322;9.432;2023-03-13T03:22:58;1.73;;;0.70;;
77362;SDS011;66428;47.322;9.432;2023-03-13T03:25:27;0.60;;;0.60;;
77362;SDS011;66428;47.322;9.432;2023-03-13T03:27:58;1.48;;;0.65;;
77362;SDS011;66428;47.322;9.432;2023-03-13T03:30:30;1.05;;;0.73;;
77362;SDS011;66428;47.322;9.432;2023-03-13T03:33:02;1.75;;;0.88;;
77362;SDS011;66428;47.322;9.432;2023-03-13T03:35:31;1.40;;;0.65;;
77362;SDS011;66428;47.322;9.432;2023-03-13T03:38:02;1.88;;;0.73;;
77362;SDS011;66428;47.322;9.432;2023-03-13T03:40:32;0.50;;;0.47;;
77362;SDS011;66428;47.322;9.432;2023-03-13T03:43:02;0.43;;;0.40;;
77362;SDS011;66428;47.322;9.432;2023-03-13T03:45:32;0.63;;;0.52;;
77362;SDS011;66428;47.322;9.432;2023-03-13T03:48:01;0.60;;;0.50;;
77362;SDS011;66428;47.322;9.432;2023-03-13T03:50:31;1.63;;;0.52;;
77362;SDS011;66428;47.322;9.432;2023-03-13T03:53:02;0.43;;;0.35;;
77362;SDS011;66428;47.322;9.432;2023-03-13T03:55:31;1.50;;;0.60;;
77362;SDS011;66428;47.322;9.432;2023-03-13T03:58:05;1.67;;;0.60;;
77362;SDS011;66428;47.322;9.432;2023-03-13T04:00:56;0.93;;;0.60;;
77362;SDS011;66428;47.322;9.432;2023-03-13T04:03:26;0.50;;;0.40;;
77362;SDS011;66428;47.322;9.432;2023-03-13T04:05:56;0.63;;;0.40;;
77362;SDS011;66428;47.322;9.432;2023-03-13T04:08:23;0.55;;;0.40;;
77362;SDS011;66428;47.322;9.432;2023-03-13T04:10:52;0.52;;;0.40;;
77362;SDS011;66428;47.322;9.432;2023-03-13T04:13:21;0.73;;;0.50;;
77362;SDS011;66428;47.322;9.432;2023-03-13T04:15:52;1.85;;;0.55;;
77362;SDS011;66428;47.322;9.432;2023-03-13T04:18:21;1.52;;;0.73;;
77362;SDS011;66428;47.322;9.432;2023-03-13T04:20:48;0.30;;;0.30;;
77362;SDS011;66428;47.322;9.432;2023-03-13T04:23:20;0.73;;;0.50;;
77362;SDS011;66428;47.322;9.432;2023-03-13T04:25:49;1.15;;;0.82;;
77362;SDS011;66428;47.322;9.432;2023-03-13T04:28:17;1.85;;;0.68;;
77362;SDS011;66428;47.322;9.432;2023-03-13T04:30:43;2.20;;;1.02;;
77362;SDS011;66428;47.322;9.432;2023-03-13T04:33:39;1.33;;;0.90;;
77362;SDS011;66428;47.322;9.432;2023-03-13T04:36:26;2.50;;;0.95;;
77362;SDS011;66428;47.322;9.432;2023-03-13T04:39:17;2.42;;;1.40;;
77362;SDS011;66428;47.322;9.432;2023-03-13T04:44:55;1.55;;;0.80;;
77362;SDS011;66428;47.322;9.432;2023-03-13T04:47:52;1.98;;;0.70;;
77362;SDS011;66428;47.322;9.432;2023-03-13T04:50:54;1.02;;;0.60;;
77362;SDS011;66428;47.322;9.432;2023-03-13T04:53:42;0.52;;;0.47;;
77362;SDS011;66428;47.322;9.432;2023-03-13T04:56:32;3.42;;;0.63;;
77362;SDS011;66428;47.322;9.432;2023-03-13T04:59:29;2.58;;;1.05;;
77362;SDS011;66428;47.322;9.432;2023-03-13T05:02:17;1.40;;;0.75;;
77362;SDS011;66428;47.322;9.432;2023-03-13T05:05:18;2.22;;;0.98;;
77362;SDS011;66428;47.322;9.432;2023-03-13T05:07:47;1.10;;;0.73;;
77362;SDS011;66428;47.322;9.432;2023-03-13T05:10:55;1.40;;;0.80;;
77362;SDS011;66428;47.322;9.432;2023-03-13T05:13:39;1.65;;;1.15;;
77362;SDS011;66428;47.322;9.432;2023-03-13T05:16:25;3.47;;;1.35;;
77362;SDS011;66428;47.322;9.432;2023-03-13T05:19:30;2.50;;;0.90;;
77362;SDS011;66428;47.322;9.432;2023-03-13T05:22:11;4.32;;;0.93;;
77362;SDS011;66428;47.322;9.432;2023-03-13T05:24:45;1.33;;;0.73;;
77362;SDS011;66428;47.322;9.432;2023-03-13T05:27:32;1.17;;;0.77;;
77362;SDS011;66428;47.322;9.432;2023-03-13T05:30:29;4.38;;;1.02;;
77362;SDS011;66428;47.322;9.432;2023-03-13T05:33:21;3.17;;;1.25;;
77362;SDS011;66428;47.322;9.432;2023-03-13T05:36:06;3.70;;;1.77;;
77362;SDS011;66428;47.322;9.432;2023-03-13T05:38:42;5.35;;;2.65;;
77362;SDS011;66428;47.322;9.432;2023-03-13T05:41:13;4.35;;;2.50;;
77362;SDS011;66428;47.322;9.432;2023-03-13T05:44:02;2.70;;;1.58;;
77362;SDS011;66428;47.322;9.432;2023-03-13T05:46:52;1.85;;;0.95;;
77362;SDS011;66428;47.322;9.432;2023-03-13T05:49:48;1.42;;;0.75;;
77362;SDS011;66428;47.322;9.432;2023-03-13T05:52:19;2.42;;;1.10;;
77362;SDS011;66428;47.322;9.432;2023-03-13T05:55:07;1.98;;;1.33;;
77362;SDS011;66428;47.322;9.432;2023-03-13T06:00:48;2.08;;;1.30;;
77362;SDS011;66428;47.322;9.432;2023-03-13T06:03:45;2.20;;;1.20;;
77362;SDS011;66428;47.322;9.432;2023-03-13T06:06:18;2.47;;;1.83;;
77362;SDS011;66428;47.322;9.432;2023-03-13T06:11:15;2.53;;;1.42;;
77362;SDS011;66428;47.322;9.432;2023-03-13T06:13:45;2.88;;;1.52;;
77362;SDS011;66428;47.322;9.432;2023-03-13T06:16:21;2.50;;;1.35;;
77362;SDS011;66428;47.322;9.432;2023-03-13T06:18:48;3.28;;;1.40;;
77362;SDS011;66428;47.322;9.432;2023-03-13T06:21:20;2.20;;;1.20;;
77362;SDS011;66428;47.322;9.432;2023-03-13T06:23:51;2.67;;;1.20;;
77362;SDS011;66428;47.322;9.432;2023-03-13T06:26:23;3.22;;;1.25;;
77362;SDS011;66428;47.322;9.432;2023-03-13T06:28:51;4.35;;;1.95;;
77362;SDS011;66428;47.322;9.432;2023-03-13T06:31:17;4.53;;;1.77;;
77362;SDS011;66428;47.322;9.432;2023-03-13T06:33:55;2.28;;;1.33;;
77362;SDS011;66428;47.322;9.432;2023-03-13T06:36:22;2.85;;;1.55;;
77362;SDS011;66428;47.322;9.432;2023-03-13T06:38:52;2.40;;;1.40;;
77362;SDS011;66428;47.322;9.432;2023-03-13T06:41:19;2.88;;;1.52;;
77362;SDS011;66428;47.322;9.432;2023-03-13T06:46:18;2.95;;;1.50;;
77362;SDS011;66428;47.322;9.432;2023-03-13T06:48:48;2.20;;;1.10;;
77362;SDS011;66428;47.322;9.432;2023-03-13T06:51:15;3.08;;;1.50;;
77362;SDS011;66428;47.322;9.432;2023-03-13T06:53:42;2.38;;;1.55;;
77362;SDS011;66428;47.322;9.432;2023-03-13T06:56:11;3.30;;;2.40;;
77362;SDS011;66428;47.322;9.432;2023-03-13T06:58:37;4.45;;;2.67;;
77362;SDS011;66428;47.322;9.432;2023-03-13T07:01:05;3.55;;;1.95;;
77362;SDS011;66428;47.322;9.432;2023-03-13T07:03:36;3.63;;;2.50;;
77362;SDS011;66428;47.322;9.432;2023-03-13T07:06:06;3.63;;;1.92;;
77362;SDS011;66428;47.322;9.432;2023-03-13T07:08:34;4.65;;;2.30;;
77362;SDS011;66428;47.322;9.432;2023-03-13T07:11:02;3.65;;;2.30;;
77362;SDS011;66428;47.322;9.432;2023-03-13T07:13:34;3.60;;;2.28;;
77362;SDS011;66428;47.322;9.432;2023-03-13T07:16:12;3.97;;;2.25;;
77362;SDS011;66428;47.322;9.432;2023-03-13T07:18:39;3.00;;;2.00;;
77362;SDS011;66428;47.322;9.432;2023-03-13T07:21:15;3.92;;;1.73;;
77362;SDS011;66428;47.322;9.432;2023-03-13T07:23:41;6.15;;;2.00;;
77362;SDS011;66428;47.322;9.432;2023-03-13T07:26:12;3.30;;;1.83;;
77362;SDS011;66428;47.322;9.432;2023-03-13T07:28:44;4.75;;;1.95;;
77362;SDS011;66428;47.322;9.432;2023-03-13T07:33:37;3.90;;;2.10;;
77362;SDS011;66428;47.322;9.432;2023-03-13T07:36:08;2.60;;;1.65;;
77362;SDS011;66428;47.322;9.432;2023-03-13T07:38:35;3.63;;;2.20;;
77362;SDS011;66428;47.322;9.432;2023-03-13T07:41:09;4.85;;;2.60;;
77362;SDS011;66428;47.322;9.432;2023-03-13T07:43:39;5.75;;;3.00;;
77362;SDS011;66428;47.322;9.432;2023-03-13T07:46:10;8.00;;;3.60;;
77362;SDS011;66428;47.322;9.432;2023-03-13T07:48:37;4.70;;;2.88;;
77362;SDS011;66428;47.322;9.432;2023-03-13T07:51:10;7.25;;;2.95;;
77362;SDS011;66428;47.322;9.432;2023-03-13T07:53:42;5.15;;;2.92;;
77362;SDS011;66428;47.322;9.432;2023-03-13T07:56:16;4.80;;;2.70;;
77362;SDS011;66428;47.322;9.432;2023-03-13T07:58:48;4.35;;;1.90;;
77362;SDS011;66428;47.322;9.432;2023-03-13T08:01:22;3.67;;;2.00;;
77362;SDS011;66428;47.322;9.432;2023-03-13T08:03:54;6.32;;;2.55;;
77362;SDS011;66428;47.322;9.432;2023-03-13T08:06:22;3.53;;;2.10;;
77362;SDS011;66428;47.322;9.432;2023-03-13T08:08:51;3.58;;;1.85;;
77362;SDS011;66428;47.322;9.432;2023-03-13T08:11:19;2.90;;;1.73;;
77362;SDS011;66428;47.322;9.432;2023-03-13T08:13:55;4.68;;;1.63;;
77362;SDS011;66428;47.322;9.432;2023-03-13T08:16:30;2.20;;;1.30;;
77362;SDS011;66428;47.322;9.432;2023-03-13T08:19:02;4.40;;;1.48;;
77362;SDS011;66428;47.322;9.432;2023-03-13T08:21:34;4.55;;;1.40;;
77362;SDS011;66428;47.322;9.432;2023-03-13T08:24:07;2.40;;;1.30;;
77362;SDS011;66428;47.322;9.432;2023-03-13T08:26:35;1.35;;;1.02;;
77362;SDS011;66428;47.322;9.432;2023-03-13T08:29:11;1.80;;;0.98;;
77362;SDS011;66428;47.322;9.432;2023-03-13T08:31:45;2.95;;;1.55;;
77362;SDS011;66428;47.322;9.432;2023-03-13T08:34:13;3.05;;;1.38;;
77362;SDS011;66428;47.322;9.432;2023-03-13T08:36:42;12.00;;;2.22;;
77362;SDS011;66428;47.322;9.432;2023-03-13T08:39:14;2.97;;;1.80;;
77362;SDS011;66428;47.322;9.432;2023-03-13T08:44:18;3.90;;;1.80;;
77362;SDS011;66428;47.322;9.432;2023-03-13T08:46:48;3.08;;;1.80;;
77362;SDS011;66428;47.322;9.432;2023-03-13T08:49:17;3.72;;;1.65;;
77362;SDS011;66428;47.322;9.432;2023-03-13T08:51:47;3.40;;;1.70;;
77362;SDS011;66428;47.322;9.432;2023-03-13T08:54:14;3.63;;;1.55;;
77362;SDS011;66428;47.322;9.432;2023-03-13T08:56:43;2.80;;;1.50;;
77362;SDS011;66428;47.322;9.432;2023-03-13T08:59:12;6.10;;;2.08;;
77362;SDS011;66428;47.322;9.432;2023-03-13T09:01:40;2.60;;;1.45;;
77362;SDS011;66428;47.322;9.432;2023-03-13T09:04:10;3.05;;;1.60;;
77362;SDS011;66428;47.322;9.432;2023-03-13T09:06:41;6.43;;;1.40;;
77362;SDS011;66428;47.322;9.432;2023-03-13T09:09:10;3.28;;;1.30;;
77362;SDS011;66428;47.322;9.432;2023-03-13T09:11:39;2.97;;;1.73;;
77362;SDS011;66428;47.322;9.432;2023-03-13T09:14:06;3.83;;;1.23;;
77362;SDS011;66428;47.322;9.432;2023-03-13T09:16:36;3.10;;;1.40;;
77362;SDS011;66428;47.322;9.432;2023-03-13T09:19:03;3.28;;;1.35;;
77362;SDS011;66428;47.322;9.432;2023-03-13T09:21:33;3.50;;;1.45;;
77362;SDS011;66428;47.322;9.432;2023-03-13T09:24:00;5.00;;;1.27;;
77362;SDS011;66428;47.322;9.432;2023-03-13T09:26:31;2.20;;;1.33;;
77362;SDS011;66428;47.322;9.432;2023-03-13T09:29:01;2.40;;;1.42;;
77362;SDS011;66428;47.322;9.432;2023-03-13T09:31:31;2.70;;;1.38;;
77362;SDS011;66428;47.322;9.432;2023-03-13T09:34:00;9.68;;;2.90;;
77362;SDS011;66428;47.322;9.432;2023-03-13T09:36:27;3.45;;;1.63;;
77362;SDS011;66428;47.322;9.432;2023-03-13T09:38:55;2.35;;;1.63;;
77362;SDS011;66428;47.322;9.432;2023-03-13T09:41:23;1.77;;;0.88;;
77362;SDS011;66428;47.322;9.432;2023-03-13T09:48:50;2.28;;;1.25;;
77362;SDS011;66428;47.322;9.432;2023-03-13T09:51:45;5.63;;;0.98;;
77362;SDS011;66428;47.322;9.432;2023-03-13T10:02:43;0.85;;;0.57;;
77362;SDS011;66428;47.322;9.432;2023-03-13T10:05:07;2.25;;;0.90;;
77362;SDS011;66428;47.322;9.432;2023-03-13T10:07:38;1.27;;;0.80;;
77362;SDS011;66428;47.322;9.432;2023-03-13T10:10:08;3.00;;;1.33;;
77362;SDS011;66428;47.322;9.432;2023-03-13T10:12:38;5.07;;;2.65;;
77362;SDS011;66428;47.322;9.432;2023-03-13T10:17:45;1.85;;;1.08;;
77362;SDS011;66428;47.322;9.432;2023-03-13T10:22:56;1.30;;;0.63;;
77362;SDS011;66428;47.322;9.432;2023-03-13T10:25:39;1.10;;;0.70;;
77362;SDS011;66428;47.322;9.432;2023-03-13T10:28:13;1.15;;;0.80;;
77362;SDS011;66428;47.322;9.432;2023-03-13T10:35:45;0.95;;;0.70;;
77362;SDS011;66428;47.322;9.432;2023-03-13T10:38:20;1.48;;;0.68;;
77362;SDS011;66428;47.322;9.432;2023-03-13T10:40:58;0.60;;;0.57;;
77362;SDS011;66428;47.322;9.432;2023-03-13T10:43:27;1.70;;;0.80;;
77362;SDS011;66428;47.322;9.432;2023-03-13T10:45:54;1.13;;;0.63;;
77362;SDS011;66428;47.322;9.432;2023-03-13T10:48:26;3.80;;;0.90;;
77362;SDS011;66428;47.322;9.432;2023-03-13T10:50:57;1.55;;;0.85;;
77362;SDS011;66428;47.322;9.432;2023-03-13T10:58:42;2.13;;;0.90;;
77362;SDS011;66428;47.322;9.432;2023-03-13T11:01:20;2.25;;;0.95;;
77362;SDS011;66428;47.322;9.432;2023-03-13T11:03:47;1.88;;;0.98;;
77362;SDS011;66428;47.322;9.432;2023-03-13T11:06:26;1.88;;;1.17;;
77362;SDS011;66428;47.322;9.432;2023-03-13T11:11:22;2.08;;;0.80;;
77362;SDS011;66428;47.322;9.432;2023-03-13T11:14:12;1.05;;;0.82;;
77362;SDS011;66428;47.322;9.432;2023-03-13T11:16:42;3.13;;;0.93;;
77362;SDS011;66428;47.322;9.432;2023-03-13T11:24:15;0.55;;;0.52;;
77362;SDS011;66428;47.322;9.432;2023-03-13T11:26:51;1.02;;;0.60;;
77362;SDS011;66428;47.322;9.432;2023-03-13T11:32:19;1.42;;;0.80;;
77362;SDS011;66428;47.322;9.432;2023-03-13T11:34:52;2.58;;;0.75;;
77362;SDS011;66428;47.322;9.432;2023-03-13T11:37:22;0.40;;;0.40;;
77362;SDS011;66428;47.322;9.432;2023-03-13T11:45:13;0.73;;;0.50;;
77362;SDS011;66428;47.322;9.432;2023-03-13T11:58:00;0.30;;;0.30;;
77362;SDS011;66428;47.322;9.432;2023-03-13T12:00:39;1.33;;;0.45;;
77362;SDS011;66428;47.322;9.432;2023-03-13T12:05:50;1.25;;;0.52;;
77362;SDS011;66428;47.322;9.432;2023-03-13T12:13:41;0.40;;;0.40;;
77362;SDS011;66428;47.322;9.432;2023-03-13T12:16:18;0.85;;;0.85;;
77362;SDS011;66428;47.322;9.432;2023-03-13T12:18:46;0.20;;;0.20;;
77362;SDS011;66428;47.322;9.432;2023-03-13T12:23:58;1.30;;;0.50;;
77362;SDS011;66428;47.322;9.432;2023-03-13T12:26:41;1.35;;;0.63;;
77362;SDS011;66428;47.322;9.432;2023-03-13T12:31:46;0.98;;;0.80;;
77362;SDS011;66428;47.322;9.432;2023-03-13T12:34:28;0.50;;;0.30;;
77362;SDS011;66428;47.322;9.432;2023-03-13T12:44:33;0.57;;;0.40;;
77362;SDS011;66428;47.322;9.432;2023-03-13T13:00:31;2.15;;;0.70;;
77362;SDS011;66428;47.322;9.432;2023-03-13T13:03:23;0.60;;;0.45;;
77362;SDS011;66428;47.322;9.432;2023-03-13T13:14:15;0.60;;;0.50;;
77362;SDS011;66428;47.322;9.432;2023-03-13T13:16:55;0.63;;;0.50;;
77362;SDS011;66428;47.322;9.432;2023-03-13T13:24:46;1.40;;;0.90;;
77362;SDS011;66428;47.322;9.432;2023-03-13T13:29:55;1.92;;;0.80;;
77362;SDS011;66428;47.322;9.432;2023-03-13T13:32:32;1.50;;;0.60;;
77362;SDS011;66428;47.322;9.432;2023-03-13T13:35:10;0.77;;;0.60;;
77362;SDS011;66428;47.322;9.432;2023-03-13T13:37:44;0.93;;;0.52;;
77362;SDS011;66428;47.322;9.432;2023-03-13T13:42:51;1.10;;;0.70;;
77362;SDS011;66428;47.322;9.432;2023-03-13T13:45:23;1.73;;;0.90;;
77362;SDS011;66428;47.322;9.432;2023-03-13T13:48:12;1.50;;;0.68;;
77362;SDS011;66428;47.322;9.432;2023-03-13T13:50:54;1.50;;;0.68;;
77362;SDS011;66428;47.322;9.432;2023-03-13T13:53:30;2.85;;;0.73;;
77362;SDS011;66428;47.322;9.432;2023-03-13T13:55:56;1.92;;;0.60;;
77362;SDS011;66428;47.322;9.432;2023-03-13T13:58:24;1.10;;;0.50;;
77362;SDS011;66428;47.322;9.432;2023-03-13T14:00:54;0.80;;;0.55;;
77362;SDS011;66428;47.322;9.432;2023-03-13T14:03:25;1.13;;;0.60;;
77362;SDS011;66428;47.322;9.432;2023-03-13T14:05:55;0.95;;;0.50;;
77362;SDS011;66428;47.322;9.432;2023-03-13T14:08:26;1.05;;;0.55;;
77362;SDS011;66428;47.322;9.432;2023-03-13T14:13:42;1.25;;;0.30;;
77362;SDS011;66428;47.322;9.432;2023-03-13T14:16:23;2.35;;;0.80;;
77362;SDS011;66428;47.322;9.432;2023-03-13T14:18:53;0.77;;;0.60;;
77362;SDS011;66428;47.322;9.432;2023-03-13T14:21:23;1.35;;;0.70;;
77362;SDS011;66428;47.322;9.432;2023-03-13T14:23:53;0.95;;;0.50;;
77362;SDS011;66428;47.322;9.432;2023-03-13T14:26:23;0.88;;;0.68;;
77362;SDS011;66428;47.322;9.432;2023-03-13T14:31:35;0.82;;;0.43;;
77362;SDS011;66428;47.322;9.432;2023-03-13T14:34:06;0.60;;;0.60;;
77362;SDS011;66428;47.322;9.432;2023-03-13T14:39:15;0.70;;;0.70;;
77362;SDS011;66428;47.322;9.432;2023-03-13T14:41:44;1.88;;;0.63;;
77362;SDS011;66428;47.322;9.432;2023-03-13T14:44:29;1.63;;;0.50;;
77362;SDS011;66428;47.322;9.432;2023-03-13T14:46:57;0.75;;;0.60;;
77362;SDS011;66428;47.322;9.432;2023-03-13T14:49:26;2.95;;;0.90;;
77362;SDS011;66428;47.322;9.432;2023-03-13T14:51:58;0.77;;;0.57;;
77362;SDS011;66428;47.322;9.432;2023-03-13T14:54:26;0.90;;;0.52;;
77362;SDS011;66428;47.322;9.432;2023-03-13T14:59:36;1.27;;;0.70;;
77362;SDS011;66428;47.322;9.432;2023-03-13T15:02:12;1.13;;;0.75;;
77362;SDS011;66428;47.322;9.432;2023-03-13T15:07:17;4.57;;;1.00;;
77362;SDS011;66428;47.322;9.432;2023-03-13T15:09:45;2.10;;;0.57;;
77362;SDS011;66428;47.322;9.432;2023-03-13T15:12:13;1.13;;;0.75;;
77362;SDS011;66428;47.322;9.432;2023-03-13T15:17:20;1.15;;;0.70;;
77362;SDS011;66428;47.322;9.432;2023-03-13T15:19:51;3.55;;;0.80;;
77362;SDS011;66428;47.322;9.432;2023-03-13T15:22:23;1.02;;;0.68;;
77362;SDS011;66428;47.322;9.432;2023-03-13T15:24:51;1.50;;;0.90;;
77362;SDS011;66428;47.322;9.432;2023-03-13T15:27:31;2.50;;;0.93;;
77362;SDS011;66428;47.322;9.432;2023-03-13T15:30:00;1.30;;;0.80;;
77362;SDS011;66428;47.322;9.432;2023-03-13T15:32:33;1.17;;;0.80;;
77362;SDS011;66428;47.322;9.432;2023-03-13T15:35:04;1.60;;;0.70;;
77362;SDS011;66428;47.322;9.432;2023-03-13T15:37:37;1.73;;;0.90;;
77362;SDS011;66428;47.322;9.432;2023-03-13T15:40:12;3.78;;;1.00;;
77362;SDS011;66428;47.322;9.432;2023-03-13T15:42:42;1.17;;;0.60;;
77362;SDS011;66428;47.322;9.432;2023-03-13T15:45:11;0.80;;;0.60;;
77362;SDS011;66428;47.322;9.432;2023-03-13T15:47:38;3.13;;;0.85;;
77362;SDS011;66428;47.322;9.432;2023-03-13T15:50:14;1.20;;;0.77;;
77362;SDS011;66428;47.322;9.432;2023-03-13T15:52:41;1.63;;;0.80;;
77362;SDS011;66428;47.322;9.432;2023-03-13T15:55:11;1.85;;;0.95;;
77362;SDS011;66428;47.322;9.432;2023-03-13T15:57:43;1.15;;;0.70;;
77362;SDS011;66428;47.322;9.432;2023-03-13T16:00:18;3.95;;;2.40;;
77362;SDS011;66428;47.322;9.432;2023-03-13T16:02:45;1.58;;;0.75;;
77362;SDS011;66428;47.322;9.432;2023-03-13T16:05:14;0.95;;;0.57;;
77362;SDS011;66428;47.322;9.432;2023-03-13T16:07:45;1.10;;;0.98;;
77362;SDS011;66428;47.322;9.432;2023-03-13T16:10:22;2.28;;;0.75;;
77362;SDS011;66428;47.322;9.432;2023-03-13T16:12:51;1.00;;;0.65;;
77362;SDS011;66428;47.322;9.432;2023-03-13T16:15:17;1.77;;;0.77;;
77362;SDS011;66428;47.322;9.432;2023-03-13T16:17:47;1.80;;;0.80;;
77362;SDS011;66428;47.322;9.432;2023-03-13T16:20:17;1.30;;;0.82;;
77362;SDS011;66428;47.322;9.432;2023-03-13T16:22:48;2.05;;;0.93;;
77362;SDS011;66428;47.322;9.432;2023-03-13T16:25:21;0.75;;;0.50;;
77362;SDS011;66428;47.322;9.432;2023-03-13T16:27:50;2.58;;;0.95;;
77362;SDS011;66428;47.322;9.432;2023-03-13T16:30:24;1.80;;;0.90;;
77362;SDS011;66428;47.322;9.432;2023-03-13T16:32:51;1.30;;;0.70;;
77362;SDS011;66428;47.322;9.432;2023-03-13T16:35:21;1.67;;;0.70;;
77362;SDS011;66428;47.322;9.432;2023-03-13T16:37:47;0.98;;;0.68;;
77362;SDS011;66428;47.322;9.432;2023-03-13T16:40:19;1.08;;;0.77;;
77362;SDS011;66428;47.322;9.432;2023-03-13T16:42:51;1.58;;;0.90;;
77362;SDS011;66428;47.322;9.432;2023-03-13T16:45:17;1.05;;;0.60;;
77362;SDS011;66428;47.322;9.432;2023-03-13T16:47:44;1.75;;;0.70;;
77362;SDS011;66428;47.322;9.432;2023-03-13T16:52:40;1.02;;;0.60;;
77362;SDS011;66428;47.322;9.432;2023-03-13T16:55:07;2.33;;;0.85;;
77362;SDS011;66428;47.322;9.432;2023-03-13T16:57:38;2.80;;;0.98;;
77362;SDS011;66428;47.322;9.432;2023-03-13T17:00:11;1.90;;;1.00;;
77362;SDS011;66428;47.322;9.432;2023-03-13T17:02:40;3.10;;;0.93;;
77362;SDS011;66428;47.322;9.432;2023-03-13T17:05:10;0.93;;;0.70;;
77362;SDS011;66428;47.322;9.432;2023-03-13T17:07:47;2.08;;;0.80;;
77362;SDS011;66428;47.322;9.432;2023-03-13T17:12:49;2.28;;;1.00;;
77362;SDS011;66428;47.322;9.432;2023-03-13T17:15:18;1.83;;;0.90;;
77362;SDS011;66428;47.322;9.432;2023-03-13T17:17:46;1.60;;;0.90;;
77362;SDS011;66428;47.322;9.432;2023-03-13T17:20:22;2.33;;;1.30;;
77362;SDS011;66428;47.322;9.432;2023-03-13T17:22:51;1.63;;;0.95;;
77362;SDS011;66428;47.322;9.432;2023-03-13T17:25:18;1.67;;;0.93;;
77362;SDS011;66428;47.322;9.432;2023-03-13T17:27:44;3.20;;;1.33;;
77362;SDS011;66428;47.322;9.432;2023-03-13T17:32:42;1.55;;;0.93;;
77362;SDS011;66428;47.322;9.432;2023-03-13T17:35:08;2.47;;;1.10;;
77362;SDS011;66428;47.322;9.432;2023-03-13T17:37:43;3.22;;;1.02;;
77362;SDS011;66428;47.322;9.432;2023-03-13T17:40:13;2.95;;;1.20;;
77362;SDS011;66428;47.322;9.432;2023-03-13T17:42:42;1.83;;;1.17;;
77362;SDS011;66428;47.322;9.432;2023-03-13T17:45:12;2.80;;;1.20;;
77362;SDS011;66428;47.322;9.432;2023-03-13T17:47:39;1.92;;;1.67;;
77362;SDS011;66428;47.322;9.432;2023-03-13T17:52:43;2.75;;;1.13;;
77362;SDS011;66428;47.322;9.432;2023-03-13T17:55:15;4.10;;;1.75;;
77362;SDS011;66428;47.322;9.432;2023-03-13T17:57:44;3.17;;;1.60;;
77362;SDS011;66428;47.322;9.432;2023-03-13T18:02:39;2.90;;;1.23;;
77362;SDS011;66428;47.322;9.432;2023-03-13T18:05:09;2.85;;;1.38;;
77362;SDS011;66428;47.322;9.432;2023-03-13T18:07:37;3.47;;;1.20;;
77362;SDS011;66428;47.322;9.432;2023-03-13T18:12:46;2.40;;;1.40;;
77362;SDS011;66428;47.322;9.432;2023-03-13T18:15:13;2.60;;;1.50;;